sensor_id;sensor_type;location;lat;lon;timestamp;pressure;altitude;pressure_sealevel;temperature;humidity
37848;BME280;23688;33.130;-117.188;2023-01-15T00:01:54;99171.00;;;12.52;100.00
37848;BME280;23688;33.130;-117.188;2023-01-15T00:04:20;99157.31;;;12.59;100.00
37848;BME280;23688;33.130;-117.188;2023-01-15T00:06:47;99164.25;;;12.59;100.00
37848;BME280;23688;33.130;-117.188;2023-01-15T00:09:14;99169.53;;;12.62;100.00
37848;BME280;23688;33.130;-117.188;2023-01-15T00:11:41;99164.41;;;12.65;100.00
37848;BME280;23688;33.130;-117.188;2023-01-15T00:14:07;99163.56;;;12.66;100.00
37848;BME280;23688;33.130;-117.188;2023-01-15T00:16:34;99194.84;;;12.66;100.00
37848;BME280;23688;33.130;-117.188;2023-01-15T00:19:01;99194.97;;;12.72;100.00
37848;BME280;23688;33.130;-117.188;2023-01-15T00:21:30;99189.09;;;12.78;100.00
37848;BME280;23688;33.130;-117.188;2023-01-15T00:23:57;99191.56;;;12.73;100.00
37848;BME280;23688;33.130;-117.188;2023-01-15T00:26:42;99201.25;;;12.79;100.00
37848;BME280;23688;33.130;-117.188;2023-01-15T00:29:27;99172.66;;;12.80;100.00
37848;BME280;23688;33.130;-117.188;2023-01-15T00:32:04;99193.44;;;12.79;100.00
37848;BME280;23688;33.130;-117.188;2023-01-15T00:34:31;99171.66;;;12.77;100.00
37848;BME280;23688;33.130;-117.188;2023-01-15T00:36:58;99183.28;;;12.90;100.00
37848;BME280;23688;33.130;-117.188;2023-01-15T00:39:24;99193.09;;;12.98;100.00
37848;BME280;23688;33.130;-117.188;2023-01-15T00:41:52;99187.22;;;13.05;100.00
37848;BME280;23688;33.130;-117.188;2023-01-15T00:44:19;99197.75;;;13.10;100.00
37848;BME280;23688;33.130;-117.188;2023-01-15T00:46:46;99184.59;;;13.05;100.00
37848;BME280;23688;33.130;-117.188;2023-01-15T00:49:12;99176.91;;;13.10;100.00
37848;BME280;23688;33.130;-117.188;2023-01-15T00:51:39;99191.00;;;13.18;100.00
37848;BME280;23688;33.130;-117.188;2023-01-15T00:54:05;99178.66;;;13.11;100.00
37848;BME280;23688;33.130;-117.188;2023-01-15T00:56:31;99181.44;;;13.17;100.00
37848;BME280;23688;33.130;-117.188;2023-01-15T00:59:01;99184.28;;;13.26;100.00
37848;BME280;23688;33.130;-117.188;2023-01-15T01:01:27;99179.38;;;13.37;100.00
37848;BME280;23688;33.130;-117.188;2023-01-15T01:03:53;99168.81;;;13.33;100.00
37848;BME280;23688;33.130;-117.188;2023-01-15T01:06:20;99202.72;;;13.33;100.00
37848;BME280;23688;33.130;-117.188;2023-01-15T01:08:47;99190.31;;;13.25;100.00
37848;BME280;23688;33.130;-117.188;2023-01-15T01:11:16;99217.94;;;13.17;100.00
37848;BME280;23688;33.130;-117.188;2023-01-15T01:13:43;99205.66;;;13.13;100.00
37848;BME280;23688;33.130;-117.188;2023-01-15T01:16:31;99210.75;;;13.09;100.00
37848;BME280;23688;33.130;-117.188;2023-01-15T01:19:03;99211.41;;;13.00;100.00
37848;BME280;23688;33.130;-117.188;2023-01-15T01:21:30;99220.34;;;12.78;100.00
37848;BME280;23688;33.130;-117.188;2023-01-15T01:23:59;99231.06;;;12.58;100.00
37848;BME280;23688;33.130;-117.188;2023-01-15T01:26:29;99221.13;;;12.45;100.00
37848;BME280;23688;33.130;-117.188;2023-01-15T01:28:56;99217.78;;;12.49;100.00
37848;BME280;23688;33.130;-117.188;2023-01-15T01:31:24;99227.47;;;12.55;100.00
37848;BME280;23688;33.130;-117.188;2023-01-15T01:33:56;99228.34;;;12.54;100.00
37848;BME280;23688;33.130;-117.188;2023-01-15T01:36:31;99219.59;;;12.52;100.00
37848;BME280;23688;33.130;-117.188;2023-01-15T01:38:58;99224.81;;;12.52;100.00
37848;BME280;23688;33.130;-117.188;2023-01-15T01:41:25;99218.47;;;12.43;100.00
37848;BME280;23688;33.130;-117.188;2023-01-15T01:46:43;99232.41;;;12.46;100.00
37848;BME280;23688;33.130;-117.188;2023-01-15T01:49:11;99235.25;;;12.53;100.00
37848;BME280;23688;33.130;-117.188;2023-01-15T01:51:55;99239.75;;;12.59;100.00
37848;BME280;23688;33.130;-117.188;2023-01-15T01:54:24;99220.34;;;12.48;100.00
37848;BME280;23688;33.130;-117.188;2023-01-15T01:56:53;99234.28;;;12.50;100.00
37848;BME280;23688;33.130;-117.188;2023-01-15T01:59:20;99243.97;;;12.54;100.00
37848;BME280;23688;33.130;-117.188;2023-01-15T02:01:48;99234.94;;;12.42;100.00
37848;BME280;23688;33.130;-117.188;2023-01-15T02:04:17;99251.66;;;12.51;100.00
37848;BME280;23688;33.130;-117.188;2023-01-15T02:06:45;99254.53;;;12.30;100.00
37848;BME280;23688;33.130;-117.188;2023-01-15T02:09:11;99246.13;;;12.11;100.00
37848;BME280;23688;33.130;-117.188;2023-01-15T02:11:38;99267.94;;;12.15;100.00
37848;BME280;23688;33.130;-117.188;2023-01-15T02:17:32;99265.34;;;12.15;100.00
37848;BME280;23688;33.130;-117.188;2023-01-15T02:25:58;99265.34;;;12.15;100.00
37848;BME280;23688;33.130;-117.188;2023-01-15T02:28:36;99263.38;;;12.08;100.00
37848;BME280;23688;33.130;-117.188;2023-01-15T02:33:39;99253.44;;;12.23;100.00
37848;BME280;23688;33.130;-117.188;2023-01-15T02:36:08;99232.16;;;12.36;100.00
37848;BME280;23688;33.130;-117.188;2023-01-15T02:38:46;99242.31;;;12.57;100.00
37848;BME280;23688;33.130;-117.188;2023-01-15T02:41:17;99236.66;;;12.72;100.00
37848;BME280;23688;33.130;-117.188;2023-01-15T02:43:47;99234.09;;;12.74;100.00
37848;BME280;23688;33.130;-117.188;2023-01-15T02:46:16;99233.44;;;12.81;100.00
37848;BME280;23688;33.130;-117.188;2023-01-15T02:48:46;99227.66;;;12.91;100.00
37848;BME280;23688;33.130;-117.188;2023-01-15T02:51:18;99216.69;;;13.03;100.00
37848;BME280;23688;33.130;-117.188;2023-01-15T02:53:47;99198.56;;;13.07;100.00
37848;BME280;23688;33.130;-117.188;2023-01-15T02:56:18;99189.00;;;13.08;100.00
37848;BME280;23688;33.130;-117.188;2023-01-15T02:58:47;99189.16;;;13.14;100.00
37848;BME280;23688;33.130;-117.188;2023-01-15T03:01:25;99166.44;;;13.09;100.00
37848;BME280;23688;33.130;-117.188;2023-01-15T03:04:12;99179.75;;;13.19;100.00
37848;BME280;23688;33.130;-117.188;2023-01-15T03:06:48;99185.59;;;13.11;100.00
37848;BME280;23688;33.130;-117.188;2023-01-15T03:09:17;99172.53;;;13.09;100.00
37848;BME280;23688;33.130;-117.188;2023-01-15T03:11:51;99179.72;;;13.18;100.00
37848;BME280;23688;33.130;-117.188;2023-01-15T03:14:31;99179.47;;;13.09;100.00
37848;BME280;23688;33.130;-117.188;2023-01-15T03:17:23;99175.09;;;13.07;100.00
37848;BME280;23688;33.130;-117.188;2023-01-15T03:20:11;99180.00;;;12.97;100.00
37848;BME280;23688;33.130;-117.188;2023-01-15T03:22:44;99182.59;;;12.95;100.00
37848;BME280;23688;33.130;-117.188;2023-01-15T03:25:24;99179.50;;;13.10;100.00
37848;BME280;23688;33.130;-117.188;2023-01-15T03:27:53;99170.66;;;13.03;100.00
37848;BME280;23688;33.130;-117.188;2023-01-15T03:30:22;99163.50;;;12.96;100.00
37848;BME280;23688;33.130;-117.188;2023-01-15T03:32:49;99168.22;;;13.11;100.00
37848;BME280;23688;33.130;-117.188;2023-01-15T03:38:10;99155.38;;;13.19;100.00
37848;BME280;23688;33.130;-117.188;2023-01-15T03:40:47;99121.31;;;13.11;100.00
37848;BME280;23688;33.130;-117.188;2023-01-15T03:43:18;99139.72;;;13.17;100.00
37848;BME280;23688;33.130;-117.188;2023-01-15T03:46:05;99138.88;;;13.18;100.00
37848;BME280;23688;33.130;-117.188;2023-01-15T03:51:12;99124.47;;;12.98;100.00
37848;BME280;23688;33.130;-117.188;2023-01-15T03:53:49;99114.88;;;12.97;100.00
37848;BME280;23688;33.130;-117.188;2023-01-15T03:56:52;99110.06;;;13.12;100.00
37848;BME280;23688;33.130;-117.188;2023-01-15T03:59:31;99119.00;;;12.89;100.00
37848;BME280;23688;33.130;-117.188;2023-01-15T04:02:01;99108.66;;;12.92;100.00
37848;BME280;23688;33.130;-117.188;2023-01-15T04:04:29;99122.25;;;12.80;100.00
37848;BME280;23688;33.130;-117.188;2023-01-15T04:06:56;99109.72;;;12.98;100.00
37848;BME280;23688;33.130;-117.188;2023-01-15T04:09:24;99105.88;;;12.84;100.00
37848;BME280;23688;33.130;-117.188;2023-01-15T04:11:51;99102.00;;;13.03;100.00
37848;BME280;23688;33.130;-117.188;2023-01-15T04:14:17;99120.56;;;13.15;100.00
37848;BME280;23688;33.130;-117.188;2023-01-15T04:16:43;99114.38;;;13.12;100.00
37848;BME280;23688;33.130;-117.188;2023-01-15T04:19:10;99110.56;;;12.97;100.00
37848;BME280;23688;33.130;-117.188;2023-01-15T04:21:36;99111.28;;;12.92;100.00
37848;BME280;23688;33.130;-117.188;2023-01-15T04:24:02;99119.88;;;12.88;100.00
37848;BME280;23688;33.130;-117.188;2023-01-15T04:26:29;99126.88;;;12.90;100.00
37848;BME280;23688;33.130;-117.188;2023-01-15T04:28:55;99107.78;;;12.91;100.00
37848;BME280;23688;33.130;-117.188;2023-01-15T04:31:24;99104.25;;;12.89;100.00
37848;BME280;23688;33.130;-117.188;2023-01-15T04:33:51;99090.28;;;12.85;100.00
37848;BME280;23688;33.130;-117.188;2023-01-15T04:36:18;99085.81;;;12.81;100.00
37848;BME280;23688;33.130;-117.188;2023-01-15T04:38:44;99079.31;;;12.99;100.00
37848;BME280;23688;33.130;-117.188;2023-01-15T04:41:10;99069.69;;;12.96;100.00
37848;BME280;23688;33.130;-117.188;2023-01-15T04:43:55;99067.47;;;12.77;100.00
37848;BME280;23688;33.130;-117.188;2023-01-15T04:46:39;99079.56;;;12.75;100.00
37848;BME280;23688;33.130;-117.188;2023-01-15T04:49:09;99073.56;;;12.77;100.00
37848;BME280;23688;33.130;-117.188;2023-01-15T04:51:35;99063.06;;;12.74;100.00
37848;BME280;23688;33.130;-117.188;2023-01-15T04:54:06;99076.81;;;12.69;100.00
37848;BME280;23688;33.130;-117.188;2023-01-15T04:56:38;99059.91;;;12.53;100.00
37848;BME280;23688;33.130;-117.188;2023-01-15T04:59:04;99053.75;;;12.49;100.00
37848;BME280;23688;33.130;-117.188;2023-01-15T05:01:31;99051.09;;;12.48;100.00
37848;BME280;23688;33.130;-117.188;2023-01-15T05:03:58;99074.78;;;12.57;100.00
37848;BME280;23688;33.130;-117.188;2023-01-15T05:06:24;99070.38;;;12.54;100.00
37848;BME280;23688;33.130;-117.188;2023-01-15T05:08:51;99084.31;;;12.56;100.00
37848;BME280;23688;33.130;-117.188;2023-01-15T05:11:18;99088.66;;;12.56;100.00
37848;BME280;23688;33.130;-117.188;2023-01-15T05:13:44;99099.22;;;12.62;100.00
37848;BME280;23688;33.130;-117.188;2023-01-15T05:16:12;99103.97;;;12.45;100.00
37848;BME280;23688;33.130;-117.188;2023-01-15T05:18:40;99106.41;;;12.39;100.00
37848;BME280;23688;33.130;-117.188;2023-01-15T05:21:16;99097.69;;;12.38;100.00
37848;BME280;23688;33.130;-117.188;2023-01-15T05:23:43;99098.63;;;12.40;100.00
37848;BME280;23688;33.130;-117.188;2023-01-15T05:26:10;99085.91;;;12.51;100.00
37848;BME280;23688;33.130;-117.188;2023-01-15T05:28:36;99090.06;;;12.45;100.00
37848;BME280;23688;33.130;-117.188;2023-01-15T05:31:14;99083.00;;;12.40;100.00
37848;BME280;23688;33.130;-117.188;2023-01-15T05:33:41;99096.88;;;12.39;100.00
37848;BME280;23688;33.130;-117.188;2023-01-15T05:36:10;99082.06;;;12.38;100.00
37848;BME280;23688;33.130;-117.188;2023-01-15T05:38:37;99086.47;;;12.39;100.00
37848;BME280;23688;33.130;-117.188;2023-01-15T05:41:12;99076.78;;;12.34;100.00
37848;BME280;23688;33.130;-117.188;2023-01-15T05:44:03;99088.72;;;12.27;100.00
37848;BME280;23688;33.130;-117.188;2023-01-15T05:46:30;99059.31;;;12.31;100.00
37848;BME280;23688;33.130;-117.188;2023-01-15T05:49:02;99060.34;;;12.36;100.00
37848;BME280;23688;33.130;-117.188;2023-01-15T05:51:29;99046.75;;;12.47;100.00
37848;BME280;23688;33.130;-117.188;2023-01-15T05:53:59;99020.50;;;12.39;100.00
37848;BME280;23688;33.130;-117.188;2023-01-15T05:56:25;99043.34;;;12.51;100.00
37848;BME280;23688;33.130;-117.188;2023-01-15T05:58:51;99039.00;;;12.50;100.00
37848;BME280;23688;33.130;-117.188;2023-01-15T06:01:18;99039.31;;;12.62;100.00
37848;BME280;23688;33.130;-117.188;2023-01-15T06:03:45;99022.06;;;12.66;100.00
37848;BME280;23688;33.130;-117.188;2023-01-15T06:06:15;99057.34;;;12.88;100.00
37848;BME280;23688;33.130;-117.188;2023-01-15T06:08:43;99050.66;;;12.99;100.00
37848;BME280;23688;33.130;-117.188;2023-01-15T06:11:10;99041.28;;;13.05;100.00
37848;BME280;23688;33.130;-117.188;2023-01-15T06:13:37;99055.16;;;13.06;100.00
37848;BME280;23688;33.130;-117.188;2023-01-15T06:16:07;99049.53;;;12.88;100.00
37848;BME280;23688;33.130;-117.188;2023-01-15T06:18:36;99050.41;;;12.88;100.00
37848;BME280;23688;33.130;-117.188;2023-01-15T06:21:07;99049.16;;;12.74;100.00
37848;BME280;23688;33.130;-117.188;2023-01-15T06:23:34;99040.38;;;12.70;100.00
37848;BME280;23688;33.130;-117.188;2023-01-15T06:26:03;99044.53;;;12.62;100.00
37848;BME280;23688;33.130;-117.188;2023-01-15T06:28:30;99031.56;;;12.65;100.00
37848;BME280;23688;33.130;-117.188;2023-01-15T06:30:57;99020.81;;;12.86;100.00
37848;BME280;23688;33.130;-117.188;2023-01-15T06:33:23;99011.69;;;13.03;100.00
37848;BME280;23688;33.130;-117.188;2023-01-15T06:35:50;99000.72;;;13.17;100.00
37848;BME280;23688;33.130;-117.188;2023-01-15T06:38:18;98978.94;;;13.16;100.00
37848;BME280;23688;33.130;-117.188;2023-01-15T06:40:44;98988.97;;;13.34;100.00
37848;BME280;23688;33.130;-117.188;2023-01-15T06:43:10;98983.56;;;13.26;100.00
37848;BME280;23688;33.130;-117.188;2023-01-15T06:45:55;98979.00;;;13.18;100.00
37848;BME280;23688;33.130;-117.188;2023-01-15T06:48:40;98985.84;;;13.13;100.00
37848;BME280;23688;33.130;-117.188;2023-01-15T06:51:07;98997.72;;;13.00;100.00
37848;BME280;23688;33.130;-117.188;2023-01-15T06:53:34;98996.75;;;12.96;100.00
37848;BME280;23688;33.130;-117.188;2023-01-15T06:56:01;99002.81;;;12.97;100.00
37848;BME280;23688;33.130;-117.188;2023-01-15T06:58:27;99008.59;;;12.83;100.00
37848;BME280;23688;33.130;-117.188;2023-01-15T07:00:53;99010.16;;;12.77;100.00
37848;BME280;23688;33.130;-117.188;2023-01-15T07:03:22;99010.66;;;12.62;100.00
37848;BME280;23688;33.130;-117.188;2023-01-15T07:05:48;99010.59;;;12.59;100.00
37848;BME280;23688;33.130;-117.188;2023-01-15T07:08:15;99019.66;;;12.75;100.00
37848;BME280;23688;33.130;-117.188;2023-01-15T07:10:41;98997.03;;;12.72;100.00
37848;BME280;23688;33.130;-117.188;2023-01-15T07:13:11;99000.84;;;12.87;100.00
37848;BME280;23688;33.130;-117.188;2023-01-15T07:15:38;99001.06;;;12.96;100.00
37848;BME280;23688;33.130;-117.188;2023-01-15T07:18:04;99007.75;;;12.84;100.00
37848;BME280;23688;33.130;-117.188;2023-01-15T07:20:31;99004.44;;;12.92;100.00
37848;BME280;23688;33.130;-117.188;2023-01-15T07:22:57;99015.72;;;12.91;100.00
37848;BME280;23688;33.130;-117.188;2023-01-15T07:25:23;99011.94;;;12.78;100.00
37848;BME280;23688;33.130;-117.188;2023-01-15T07:27:50;98988.34;;;12.72;100.00
37848;BME280;23688;33.130;-117.188;2023-01-15T07:30:16;98997.22;;;12.80;100.00
37848;BME280;23688;33.130;-117.188;2023-01-15T07:32:43;99003.22;;;12.77;100.00
37848;BME280;23688;33.130;-117.188;2023-01-15T07:35:09;99001.78;;;12.89;100.00
37848;BME280;23688;33.130;-117.188;2023-01-15T07:37:35;99004.56;;;12.96;100.00
37848;BME280;23688;33.130;-117.188;2023-01-15T07:40:04;99010.50;;;12.91;100.00
37848;BME280;23688;33.130;-117.188;2023-01-15T07:42:30;98988.78;;;12.90;100.00
37848;BME280;23688;33.130;-117.188;2023-01-15T07:45:15;98995.50;;;12.80;100.00
37848;BME280;23688;33.130;-117.188;2023-01-15T07:47:59;98975.84;;;12.93;100.00
37848;BME280;23688;33.130;-117.188;2023-01-15T07:50:44;98978.56;;;12.99;100.00
37848;BME280;23688;33.130;-117.188;2023-01-15T07:53:10;98962.81;;;12.95;100.00
37848;BME280;23688;33.130;-117.188;2023-01-15T07:55:36;98974.06;;;12.92;100.00
37848;BME280;23688;33.130;-117.188;2023-01-15T07:58:03;98981.00;;;12.92;100.00
37848;BME280;23688;33.130;-117.188;2023-01-15T08:00:29;98963.31;;;12.78;100.00
37848;BME280;23688;33.130;-117.188;2023-01-15T08:02:56;98968.66;;;12.84;100.00
37848;BME280;23688;33.130;-117.188;2023-01-15T08:05:22;98984.41;;;12.89;100.00
37848;BME280;23688;33.130;-117.188;2023-01-15T08:07:48;98996.28;;;12.76;100.00
37848;BME280;23688;33.130;-117.188;2023-01-15T08:10:15;99002.00;;;12.63;100.00
37848;BME280;23688;33.130;-117.188;2023-01-15T08:12:41;99004.50;;;12.58;100.00
37848;BME280;23688;33.130;-117.188;2023-01-15T08:15:29;99002.31;;;12.40;100.00
37848;BME280;23688;33.130;-117.188;2023-01-15T08:17:57;99019.72;;;12.43;100.00
37848;BME280;23688;33.130;-117.188;2023-01-15T08:20:25;99031.41;;;12.26;100.00
37848;BME280;23688;33.130;-117.188;2023-01-15T08:22:52;99030.13;;;12.10;100.00
37848;BME280;23688;33.130;-117.188;2023-01-15T08:25:20;99050.16;;;12.12;100.00
37848;BME280;23688;33.130;-117.188;2023-01-15T08:27:47;99042.28;;;12.11;100.00
37848;BME280;23688;33.130;-117.188;2023-01-15T08:30:17;99022.84;;;11.98;100.00
37848;BME280;23688;33.130;-117.188;2023-01-15T08:32:43;99053.94;;;11.93;100.00
37848;BME280;23688;33.130;-117.188;2023-01-15T08:35:10;99047.81;;;11.91;100.00
37848;BME280;23688;33.130;-117.188;2023-01-15T08:37:38;99036.56;;;11.92;100.00
37848;BME280;23688;33.130;-117.188;2023-01-15T08:40:05;99027.84;;;11.90;100.00
37848;BME280;23688;33.130;-117.188;2023-01-15T08:42:34;99043.34;;;11.87;100.00
37848;BME280;23688;33.130;-117.188;2023-01-15T08:45:04;99042.22;;;11.79;100.00
37848;BME280;23688;33.130;-117.188;2023-01-15T08:50:51;99037.16;;;11.84;100.00
37848;BME280;23688;33.130;-117.188;2023-01-15T08:53:20;99051.00;;;11.83;100.00
37848;BME280;23688;33.130;-117.188;2023-01-15T08:55:47;99036.81;;;11.71;100.00
37848;BME280;23688;33.130;-117.188;2023-01-15T08:58:14;99036.00;;;11.74;100.00
37848;BME280;23688;33.130;-117.188;2023-01-15T09:00:41;99028.16;;;11.72;100.00
37848;BME280;23688;33.130;-117.188;2023-01-15T09:03:07;99033.41;;;11.74;100.00
37848;BME280;23688;33.130;-117.188;2023-01-15T09:05:35;99042.00;;;11.71;100.00
37848;BME280;23688;33.130;-117.188;2023-01-15T09:08:01;99061.13;;;11.73;100.00
37848;BME280;23688;33.130;-117.188;2023-01-15T09:10:27;99067.22;;;11.74;100.00
37848;BME280;23688;33.130;-117.188;2023-01-15T09:12:54;99058.47;;;11.72;100.00
37848;BME280;23688;33.130;-117.188;2023-01-15T09:15:20;99053.34;;;11.75;100.00
37848;BME280;23688;33.130;-117.188;2023-01-15T09:17:46;99076.69;;;11.72;100.00
37848;BME280;23688;33.130;-117.188;2023-01-15T09:20:13;99068.22;;;11.79;100.00
37848;BME280;23688;33.130;-117.188;2023-01-15T09:22:39;99048.28;;;11.78;100.00
37848;BME280;23688;33.130;-117.188;2023-01-15T09:25:06;99054.34;;;11.78;100.00
37848;BME280;23688;33.130;-117.188;2023-01-15T09:27:36;99071.63;;;11.76;100.00
37848;BME280;23688;33.130;-117.188;2023-01-15T09:30:03;99040.47;;;11.78;100.00
37848;BME280;23688;33.130;-117.188;2023-01-15T09:32:29;99042.88;;;11.72;100.00
37848;BME280;23688;33.130;-117.188;2023-01-15T09:34:57;99046.53;;;11.78;100.00
37848;BME280;23688;33.130;-117.188;2023-01-15T09:37:23;99042.31;;;11.82;100.00
37848;BME280;23688;33.130;-117.188;2023-01-15T09:39:49;99052.94;;;11.88;100.00
37848;BME280;23688;33.130;-117.188;2023-01-15T09:42:47;99037.47;;;11.93;100.00
37848;BME280;23688;33.130;-117.188;2023-01-15T09:45:19;99045.34;;;11.96;100.00
37848;BME280;23688;33.130;-117.188;2023-01-15T09:53:21;99028.69;;;12.21;100.00
37848;BME280;23688;33.130;-117.188;2023-01-15T09:55:52;99015.59;;;12.18;100.00
37848;BME280;23688;33.130;-117.188;2023-01-15T09:58:25;99024.59;;;12.31;100.00
37848;BME280;23688;33.130;-117.188;2023-01-15T10:00:55;99006.50;;;12.35;100.00
37848;BME280;23688;33.130;-117.188;2023-01-15T10:04:22;99019.09;;;12.52;100.00
37848;BME280;23688;33.130;-117.188;2023-01-15T10:06:49;99027.00;;;12.23;100.00
37848;BME280;23688;33.130;-117.188;2023-01-15T10:09:33;99025.72;;;12.07;100.00
37848;BME280;23688;33.130;-117.188;2023-01-15T10:12:24;99029.13;;;12.05;100.00
37848;BME280;23688;33.130;-117.188;2023-01-15T10:17:44;99030.88;;;12.37;100.00
37848;BME280;23688;33.130;-117.188;2023-01-15T10:20:33;99039.63;;;12.41;100.00
37848;BME280;23688;33.130;-117.188;2023-01-15T10:26:38;99063.28;;;12.49;100.00
37848;BME280;23688;33.130;-117.188;2023-01-15T10:32:03;99062.69;;;12.60;100.00
37848;BME280;23688;33.130;-117.188;2023-01-15T10:37:50;99062.06;;;12.69;100.00
37848;BME280;23688;33.130;-117.188;2023-01-15T10:42:59;99070.13;;;12.78;100.00
37848;BME280;23688;33.130;-117.188;2023-01-15T10:45:34;99070.94;;;12.77;100.00
37848;BME280;23688;33.130;-117.188;2023-01-15T10:48:15;99077.97;;;12.80;100.00
37848;BME280;23688;33.130;-117.188;2023-01-15T10:50:47;99068.34;;;12.77;100.00
37848;BME280;23688;33.130;-117.188;2023-01-15T10:53:22;99058.91;;;12.82;100.00
37848;BME280;23688;33.130;-117.188;2023-01-15T10:56:04;99073.81;;;12.87;100.00
37848;BME280;23688;33.130;-117.188;2023-01-15T11:01:15;99034.97;;;12.62;100.00
37848;BME280;23688;33.130;-117.188;2023-01-15T11:03:44;99053.09;;;12.58;100.00
37848;BME280;23688;33.130;-117.188;2023-01-15T11:06:16;99056.81;;;12.68;100.00
37848;BME280;23688;33.130;-117.188;2023-01-15T11:08:53;99048.03;;;12.31;100.00
37848;BME280;23688;33.130;-117.188;2023-01-15T11:11:42;99059.44;;;12.34;100.00
37848;BME280;23688;33.130;-117.188;2023-01-15T11:14:37;99064.69;;;12.06;100.00
37848;BME280;23688;33.130;-117.188;2023-01-15T11:17:35;99053.28;;;12.01;100.00
37848;BME280;23688;33.130;-117.188;2023-01-15T11:22:46;99064.72;;;12.37;100.00
37848;BME280;23688;33.130;-117.188;2023-01-15T11:25:13;99047.97;;;12.28;100.00
37848;BME280;23688;33.130;-117.188;2023-01-15T11:27:50;99057.44;;;12.26;100.00
37848;BME280;23688;33.130;-117.188;2023-01-15T11:30:34;99070.84;;;12.39;100.00
37848;BME280;23688;33.130;-117.188;2023-01-15T11:33:03;99071.00;;;12.46;100.00
37848;BME280;23688;33.130;-117.188;2023-01-15T11:35:31;99077.78;;;12.40;100.00
37848;BME280;23688;33.130;-117.188;2023-01-15T11:38:06;99076.38;;;12.52;100.00
37848;BME280;23688;33.130;-117.188;2023-01-15T11:40:32;99074.50;;;12.46;100.00
37848;BME280;23688;33.130;-117.188;2023-01-15T11:42:59;99077.19;;;12.49;100.00
37848;BME280;23688;33.130;-117.188;2023-01-15T11:45:49;99064.28;;;12.54;100.00
37848;BME280;23688;33.130;-117.188;2023-01-15T11:48:45;99079.97;;;12.57;100.00
37848;BME280;23688;33.130;-117.188;2023-01-15T11:51:38;99072.22;;;12.58;100.00
37848;BME280;23688;33.130;-117.188;2023-01-15T11:54:12;99065.97;;;12.52;100.00
37848;BME280;23688;33.130;-117.188;2023-01-15T11:56:43;99069.50;;;12.54;100.00
37848;BME280;23688;33.130;-117.188;2023-01-15T11:59:16;99061.63;;;12.20;100.00
37848;BME280;23688;33.130;-117.188;2023-01-15T12:04:53;99082.50;;;11.92;100.00
37848;BME280;23688;33.130;-117.188;2023-01-15T12:07:22;99090.22;;;11.89;100.00
37848;BME280;23688;33.130;-117.188;2023-01-15T12:10:04;99084.53;;;12.02;100.00
37848;BME280;23688;33.130;-117.188;2023-01-15T12:12:50;99093.59;;;12.15;100.00
37848;BME280;23688;33.130;-117.188;2023-01-15T12:15:32;99071.63;;;12.05;100.00
37848;BME280;23688;33.130;-117.188;2023-01-15T12:18:32;99076.38;;;12.20;100.00
37848;BME280;23688;33.130;-117.188;2023-01-15T12:26:31;99098.97;;;11.91;100.00
37848;BME280;23688;33.130;-117.188;2023-01-15T12:31:35;99086.34;;;11.76;100.00
37848;BME280;23688;33.130;-117.188;2023-01-15T12:36:46;99093.81;;;11.65;100.00
37848;BME280;23688;33.130;-117.188;2023-01-15T12:42:16;99088.63;;;11.94;100.00
37848;BME280;23688;33.130;-117.188;2023-01-15T12:45:08;99103.50;;;11.98;100.00
37848;BME280;23688;33.130;-117.188;2023-01-15T12:50:43;99132.16;;;11.71;100.00
37848;BME280;23688;33.130;-117.188;2023-01-15T12:53:29;99131.22;;;11.69;100.00
37848;BME280;23688;33.130;-117.188;2023-01-15T13:01:44;99149.75;;;11.52;100.00
37848;BME280;23688;33.130;-117.188;2023-01-15T13:07:03;99134.56;;;11.38;100.00
37848;BME280;23688;33.130;-117.188;2023-01-15T13:09:51;99137.38;;;11.44;100.00
37848;BME280;23688;33.130;-117.188;2023-01-15T13:12:21;99124.88;;;11.33;100.00
37848;BME280;23688;33.130;-117.188;2023-01-15T13:14:47;99128.78;;;11.46;100.00
37848;BME280;23688;33.130;-117.188;2023-01-15T13:17:24;99148.03;;;11.53;100.00
37848;BME280;23688;33.130;-117.188;2023-01-15T13:33:32;99137.56;;;12.06;100.00
37848;BME280;23688;33.130;-117.188;2023-01-15T13:36:11;99161.91;;;12.08;100.00
37848;BME280;23688;33.130;-117.188;2023-01-15T13:38:43;99148.13;;;11.83;100.00
37848;BME280;23688;33.130;-117.188;2023-01-15T13:41:18;99138.66;;;11.85;100.00
37848;BME280;23688;33.130;-117.188;2023-01-15T13:44:05;99148.53;;;11.95;100.00
37848;BME280;23688;33.130;-117.188;2023-01-15T13:46:36;99149.72;;;12.07;100.00
37848;BME280;23688;33.130;-117.188;2023-01-15T13:49:02;99153.75;;;11.97;100.00
37848;BME280;23688;33.130;-117.188;2023-01-15T13:51:32;99164.41;;;12.05;100.00
37848;BME280;23688;33.130;-117.188;2023-01-15T13:54:26;99165.06;;;11.97;100.00
37848;BME280;23688;33.130;-117.188;2023-01-15T13:56:53;99162.41;;;11.96;100.00
37848;BME280;23688;33.130;-117.188;2023-01-15T13:59:41;99146.31;;;12.09;100.00
37848;BME280;23688;33.130;-117.188;2023-01-15T14:02:25;99167.91;;;12.05;100.00
37848;BME280;23688;33.130;-117.188;2023-01-15T14:04:52;99159.31;;;12.09;100.00
37848;BME280;23688;33.130;-117.188;2023-01-15T14:07:29;99172.72;;;11.93;100.00
37848;BME280;23688;33.130;-117.188;2023-01-15T14:10:19;99154.69;;;11.99;100.00
37848;BME280;23688;33.130;-117.188;2023-01-15T14:13:08;99182.44;;;11.98;100.00
37848;BME280;23688;33.130;-117.188;2023-01-15T14:27:04;99132.75;;;12.19;100.00